Eldena, IL (61324)

3:54 AM CDT on July 24, 2017 (GMT -0500)
Walton Road | | Change Station
Active Advisory: Flood Warning

Elev 778 ft 41.75 °N, 89.44 °W | Updated 3 minutes ago

Mostly Cloudy
Mostly Cloudy
67.6 °F
Feels Like 67.6 °F
N
3.0
Wind Variable Wind from NE
Gusts 8.0 mph

Today
High -- | Low -- °F
--% Chance of Precip.
Yesterday
High -- | Low -- °F
Precip. -- in
Pressure 29.96 in
Visibility 10.0 miles
Clouds Mostly Cloudy 1200 ft
Dew Point 67 °F
Humidity 98%
Rainfall 0.00 in
Snow Depth Not available.
5:44 AM 8:23 PM
New Moon, 1% visible
METAR KSQI 240756Z 04006KT 10SM BKN012 19/18 A2993 RMK AO2 SLP143 T01940178
Pressure 29.96 in
Visibility 10.0 miles
Clouds Mostly Cloudy 1200 ft
Dew Point 67 °F
Humidity 98%
Rainfall 0.00 in
Snow Depth Not available.
5:44 AM 8:23 PM
New Moon, 1% visible
METAR KSQI 240756Z 04006KT 10SM BKN012 19/18 A2993 RMK AO2 SLP143 T01940178

Get Your Daily Forecast Email!

Thanks for signing up!

Be on the lookout for a verification email in your inbox.

You'll start receiving severe weather alerts in your inbox..

×

10-Day Weather Forecast

Almanac

Astronomy

Jul. 24, 2017 Rise Set
Actual Time
Civil Twilight
Nautical Twilight
Astronomical Twilight
Moon
Length of Visible Light
Length of Day
Tomorrow will be .
, % of the Moon is Illuminated

Today's Extremes

State Highs State Lows

Community

WunderPhotos

Category 6

Welcome to Category 6. This is the collective home for Weather Underground's featured writeups by Dr. Jeff Masters (right), Bob Henson (left), Chris Burt, and other regular contributors.

Nearby

Air Quality

  Air Quality AQ Index Pollutant
Not available.

Snow Depth

Station Depth Elevation

Earthquake Activity

City Distance Mag. Time & Date
Minimum magnitude displayed is 2.5.

Coastal Water Temperatures

Place Temperature

Stations

Nearby Weather Stations

Station Location Temp. Windchill Dew Point Humidity Wind Precip. Elev Updated Type
                   

Watches & Warnings

Flood Warning
Issued: 9:14 PM CDT Jul. 23, 2017 – National Weather Service

The Flood Warning continues for
the Rock River at Dixon.
* Until late Monday night.
* At 815 PM Sunday the stage was 17.1 feet.
* Flood stage is 16.0 feet.
* Minor flooding is occurring and minor flooding is forecast.
* Forecast... the river will continue to fall to below flood stage by
Monday evening.
* Impact... at 16.5 feet... all of Page drive closed along the river.
Lower Road closed in area of boat docks in Lowell Park. Flooding of
unimproved land on Riverside Drive in White Oaks. Water over
entrance Road on Colony Road.


Lat... Lon 4193 8933 4183 8943 4176 8962 4183 8963
      4190 8950 4196 8942


Bmd